Flight Track Log - Related Links

Times and Time Zones

All times are in EDT time to prevent confusion due to time zone crossing. See the UAL906 flight status page for this flight to view local times or setup timezone preferences in your user account.

Time Position Orientation Groundspeed Altitude Reporting Facility
EDT Latitude Longitude Course Direction KTS MPH feet Rate Location/Type
Fri 06:48:55 AM 50.0460 8.5690 244° Southwest 12 14  Level FlightAware ADS-B
Fri 06:49:48 AM 50.0450 8.5690 180° South 11 13 64 Level FlightAware ADS-B
Fri 06:52:00 AM 50.1706 8.2451 300° West  Level FlightAware Approximate
Fri 06:53:00 AM 50.2364 8.0939 308° West  Level FlightAware Approximate
Fri 06:54:00 AM 50.3032 7.9437 308° West  Level FlightAware Approximate
Fri 06:54:59 AM 50.0440 8.5680 305° West 19 22  Level FlightAware ADS-B
Fri 06:55:00 AM 50.3748 7.7982 305° West  Level FlightAware Approximate
Fri 06:55:37 AM 50.0430 8.5680 180° South 24 28  Level FlightAware ADS-B
Fri 06:55:51 AM 50.0420 8.5670 213° Southwest 25 29 96 Level FlightAware ADS-B
Fri 06:56:07 AM 50.0420 8.5660 270° West 32 37 97 Level FlightAware ADS-B
Fri 06:56:35 AM 50.0410 8.5630 243° Southwest 16 18 99 Level FlightAware ADS-B
Fri 06:56:59 AM 50.0410 8.5610 270° West 17 20 103 Level FlightAware ADS-B
Fri 06:57:15 AM 50.0400 8.5590 232° Southwest 18 21 106 Level FlightAware ADS-B
Fri 06:57:43 AM 50.0400 8.5550 270° West 18 21 109 Level FlightAware ADS-B
Fri 06:58:01 AM 50.0390 8.5530 232° Southwest 19 22 113 Level FlightAware ADS-B
Fri 06:58:23 AM 50.0380 8.5500 243° Southwest 21 24 116 Level FlightAware ADS-B
Fri 06:58:53 AM 50.0370 8.5460 249° West 24 28 120 Level FlightAware ADS-B
Fri 06:59:21 AM 50.0360 8.5420 249° West 18 21 126 Level FlightAware ADS-B
Fri 06:59:49 AM 50.0360 8.5390 270° West 18 21 132 Level FlightAware ADS-B
Fri 07:00:17 AM 50.0350 8.5360 243° Southwest 31 36 139 Level FlightAware ADS-B
Fri 07:00:47 AM 50.0340 8.5340 232° Southwest 22 25 146 Level FlightAware ADS-B
Fri 07:00:59 AM 50.0340 8.5330 270° West 21 24 154 Level FlightAware ADS-B
Fri 07:03:00 AM 50.1722 8.2408 300° West  Level FlightAware Approximate
Fri 07:04:00 AM 50.2375 8.0918 308° West  Level FlightAware Approximate
Fri 07:04:01 AM 50.0330 8.5340 308° West 12 14  Level FlightAware ADS-B
Fri 07:04:33 AM 50.0330 8.5350 90° East 18 21 251 Level FlightAware ADS-B
Fri 07:05:10 AM 50.0330 8.5360 90° East 280 Level FlightAware ADS-B
Fri 07:07:00 AM 50.1472 8.3065 304° West  Level FlightAware Approximate
Fri 07:08:00 AM 50.2073 8.1521 308° West  Level FlightAware Approximate
Fri 07:08:15 AM 50.0340 8.5420 308° West 88 101  Level FlightAware ADS-B
Fri 07:08:44 AM 50.0410 8.5690 68° East 175 201 1,368 Level FlightAware ADS-B
Fri 07:09:12 AM 50.0500 8.6060 69° East 185 213 1,300 2,040 Climbing FlightAware ADS-B
Fri 07:09:34 AM 50.0520 8.6160 73° East 183 211 1,700 1,929 Climbing FlightAware ADS-B
Fri 07:10:08 AM 50.0650 8.6770 72° East 188 216 3,100 1,900 Climbing FlightAware ADS-B
Fri 07:10:34 AM 50.0740 8.7100 67° East 202 232 3,600 1,000 Climbing FlightAware ADS-B
Fri 07:10:50 AM 50.0870 8.7230 33° Northeast 220 253 3,800 1,000 Climbing FlightAware ADS-B
Fri 07:10:58 AM 50.0940 8.7270 20° North 227 261 4,000 1,364 Climbing FlightAware ADS-B
Fri 07:11:34 AM 50.1300 8.7500 22° Northeast 253 291 4,800 1,556 Climbing FlightAware ADS-B
Fri 07:11:52 AM 50.1520 8.7650 24° Northeast 268 308 5,400 2,217 Climbing FlightAware ADS-B
Fri 07:12:20 AM 50.1850 8.7840 20° North 272 313 6,500 2,143 Climbing FlightAware ADS-B
Fri 07:12:48 AM 50.2190 8.7740 349° North 284 327 7,400 2,182 Climbing FlightAware ADS-B
Fri 07:13:04 AM 50.2340 8.7490 313° West 285 328 8,100 2,400 Climbing FlightAware ADS-B
Fri 07:13:28 AM 50.2500 8.7070 301° West 289 333 9,000 2,250 Climbing FlightAware ADS-B
Fri 07:13:44 AM 50.2600 8.6780 298° West 288 331 9,600 1,552 Climbing FlightAware ADS-B
Fri 07:14:26 AM 50.2900 8.5990 301° West 318 366 10,500 1,171 Climbing FlightAware ADS-B
Fri 07:15:06 AM 50.3220 8.5160 301° West 350 403 11,200 1,571 Climbing FlightAware ADS-B
Fri 07:15:50 AM 50.3600 8.4200 302° West 359 413 12,700 2,000 Climbing FlightAware ADS-B
Fri 07:16:18 AM 50.3740 8.3500 287° West 369 425 13,600 1,853 Climbing FlightAware ADS-B
Fri 07:16:58 AM 50.3580 8.2450 257° West 378 435 14,800 1,725 Climbing FlightAware ADS-B
Fri 07:17:38 AM 50.3560 8.1430 268° West 382 440 15,900 1,624 Climbing FlightAware ADS-B
Fri 07:18:23 AM 50.3930 8.0330 298° West 386 444 17,100 1,667 Climbing FlightAware ADS-B
Fri 07:19:08 AM 50.4460 7.9300 309° West 393 452 18,400 1,725 Climbing FlightAware ADS-B
Fri 07:19:43 AM 50.4820 7.8610 309° West 396 456 19,400 1,575 Climbing FlightAware ADS-B
Fri 07:20:28 AM 50.5370 7.7520 308° West 401 461 20,500 1,467 Climbing FlightAware ADS-B
Fri 07:21:13 AM 50.5890 7.6490 309° West 408 470 21,600 1,412 Climbing FlightAware ADS-B
Fri 07:21:53 AM 50.6370 7.5530 308° West 415 478 22,500 1,280 Climbing FlightAware ADS-B
Fri 07:22:28 AM 50.6800 7.4680 309° West 422 486 23,200 1,200 Climbing FlightAware ADS-B
Fri 07:23:28 AM 50.7500 7.3310 309° West 429 494 24,400 1,314 Climbing FlightAware ADS-B
Fri 07:24:13 AM 50.8010 7.2070 303° West 432 497 25,500 1,047 Climbing FlightAware ADS-B
Fri 07:24:54 AM 50.8480 7.1010 305° West 448 516 25,900 635 Climbing FlightAware ADS-B
Fri 07:25:38 AM 50.9010 6.9810 305° West 463 533 26,400 857 Climbing FlightAware ADS-B
Fri 07:26:18 AM 50.9540 6.8650 306° West 468 539 27,100 1,050 Climbing FlightAware ADS-B
Fri 07:26:58 AM 51.0090 6.7590 310° West 474 545 27,800 975 Climbing FlightAware ADS-B
Fri 07:27:38 AM 51.0650 6.6710 315° West 479 551 28,400 897 Climbing FlightAware ADS-B
Fri 07:28:25 AM 51.1390 6.5560 316° Northwest 485 558 29,100 918 Climbing FlightAware ADS-B
Fri 07:29:03 AM 51.2070 6.4510 316° Northwest 490 564 29,700 1,012 Climbing FlightAware ADS-B
Fri 07:29:48 AM 51.2780 6.3400 316° Northwest 490 564 30,500 1,200 Climbing FlightAware ADS-B
Fri 07:30:33 AM 51.3520 6.2240 316° Northwest 485 558 31,500 1,200 Climbing FlightAware ADS-B
Fri 07:31:13 AM 51.4150 6.1240 315° West 485 558 32,200 987 Climbing FlightAware ADS-B
Fri 07:31:52 AM 51.4760 6.0270 315° West 484 557 32,800 966 Climbing FlightAware ADS-B
Fri 07:32:40 AM 51.5510 5.9080 315° West 482 555 33,600 837 Climbing FlightAware ADS-B
Fri 07:33:18 AM 51.6110 5.8120 315° West 483 556 34,000 293 Climbing FlightAware ADS-B
Fri 07:34:02 AM 51.6850 5.6940 315° West 483 556 34,000 -75 Level FlightAware ADS-B
Fri 07:34:38 AM 51.7514 5.6105 315° West 482 555 33,900  Descending FlightAware UK
Fri 07:34:40 AM 51.7450 5.5970 315° West 482 555 34,000 333 Climbing FlightAware ADS-B
Fri 07:34:56 AM 51.7805 5.5662 315° West 482 555 34,000  Level FlightAware UK
Fri 07:35:22 AM 51.8100 5.4930 315° West 483 556 34,000 -100 Level FlightAware ADS-B
Fri 07:35:56 AM 51.8667 5.4072 315° West 482 555 33,900  Descending FlightAware UK
Fri 07:36:06 AM 51.8770 5.3830 315° West 484 557 34,000  Climbing FlightAware ADS-B
Fri 07:36:26 AM 51.9108 5.3278 315° West 480 552 33,900  Descending FlightAware UK
Fri 07:36:50 AM 51.9470 5.2690 315° West 483 556 34,000 125 Climbing FlightAware ADS-B
Fri 07:37:14 AM 51.9850 5.2034 315° West 482 555 34,000  Level FlightAware UK
Fri 07:37:30 AM 52.0090 5.1680 315° West 484 557 34,000  Level FlightAware ADS-B
Fri 07:38:14 AM 52.0790 5.0520 314° West 485 558 34,000  Level FlightAware ADS-B
Fri 07:38:50 AM 52.1358 4.9553 314° West 482 555 34,000  Level FlightAware UK
Fri 07:38:54 AM 52.1420 4.9480 314° West 484 557 34,000  Level FlightAware ADS-B
Fri 07:39:14 AM 52.1736 4.8930 314° West 482 555 34,000  Level FlightAware UK
Fri 07:39:38 AM 52.2110 4.8340 314° West 485 558 34,000 -91 Level FlightAware ADS-B
Fri 07:40:20 AM 52.2777 4.7216 314° West 482 555 33,900  Descending FlightAware UK
Fri 07:40:20 AM 52.2780 4.7220 314° West 484 557 34,000  Climbing FlightAware ADS-B
Fri 07:40:38 AM 52.3057 4.6744 314° West 482 555 33,900 -167 Descending FlightAware UK
Fri 07:40:56 AM 52.3344 4.6278 315° West 482 555 33,900 231 Level FlightAware UK
Fri 07:41:04 AM 52.3470 4.6060 315° West 483 556 34,000 207 Climbing FlightAware ADS-B
Fri 07:41:25 AM 52.3810 4.5498 315° West 482 555 34,000  Level FlightAware UK
Fri 07:41:44 AM 52.4080 4.5030 315° West 483 556 34,000  Level FlightAware ADS-B
Fri 07:42:01 AM 52.4366 4.4553 315° West 482 555 34,000  Level FlightAware UK
Fri 07:42:28 AM 52.4760 4.3870 315° West 483 556 34,000  Level FlightAware ADS-B
Fri 07:43:08 AM 52.5390 4.2810 314° West 483 556 34,000  Level FlightAware ADS-B
Fri 07:43:52 AM 52.6040 4.1690 314° West 482 555 34,000  Level FlightAware ADS-B
Fri 07:44:26 AM 52.6590 4.0750 314° West 482 555 34,000  Level FlightAware ADS-B
Fri 07:45:14 AM 52.7330 3.9480 314° West 480 552 34,000  Level FlightAware ADS-B
Fri 07:45:55 AM 52.7940 3.8420 314° West 481 554 34,000 -78 Level FlightAware ADS-B
Fri 07:46:31 AM 52.8521 3.7421 314° West 480 552 33,900  Descending FlightAware UK
Fri 07:46:39 AM 52.8610 3.7210 314° West 479 551 34,000  Climbing FlightAware ADS-B
Fri 07:46:55 AM 52.8833 3.6700 314° West 482 555 33,900 -150 Descending FlightAware UK
Fri 07:47:19 AM 52.9076 3.5935 298° West 480 552 33,900 250 Level FlightAware UK
Fri 07:47:19 AM 52.9050 3.6010 298° West 476 548 34,000  Climbing FlightAware ADS-B
Fri 07:47:43 AM 52.9295 3.5140 298° West 480 552 33,900  Descending FlightAware UK
Fri 07:47:58 AM 52.9430 3.4660 298° West 476 548 34,000  Climbing FlightAware ADS-B
Fri 07:48:31 AM 52.9738 3.3559 298° West 480 552 33,900  Descending FlightAware UK
Fri 07:48:45 AM 52.9860 3.3100 298° West 476 548 34,000 143 Climbing FlightAware ADS-B
Fri 07:49:13 AM 53.0124 3.2168 298° West 480 552 34,000  Level FlightAware UK
Fri 07:49:24 AM 53.0200 3.1880 298° West 476 548 34,000  Level FlightAware ADS-B
Fri 07:50:08 AM 53.0530 3.0350 290° West 475 547 34,000  Level FlightAware ADS-B
Fri 07:50:48 AM 53.0770 2.8940 286° West 475 547 34,000  Level FlightAware ADS-B
Fri 07:51:29 AM 53.0990 2.7610 285° West 474 545 34,000  Level FlightAware ADS-B
Fri 07:52:10 AM 53.1240 2.6030 285° West 473 544 34,000  Level FlightAware ADS-B
Fri 07:52:13 AM 53.1265 2.5909 285° West 480 552 34,000  Level FlightAware UK
Fri 07:52:25 AM 53.1331 2.5487 285° West 482 555 34,000  Level FlightAware UK
Fri 07:52:55 AM 53.1497 2.4433 285° West 480 552 34,000  Level FlightAware UK
Fri 07:52:56 AM 53.1490 2.4440 285° West 473 544 34,000 -333 Level FlightAware ADS-B
Fri 07:53:13 AM 53.1594 2.3796 285° West 482 555 33,900  Descending FlightAware UK
Fri 07:53:31 AM 53.1694 2.3161 285° West 480 552 34,000 250 Climbing FlightAware UK
Fri 07:53:37 AM 53.1720 2.3010 285° West 473 544 34,000  Level FlightAware ADS-B
Fri 07:54:18 AM 53.1950 2.1530 285° West 472 543 34,000  Level FlightAware ADS-B
Fri 07:55:00 AM 53.2180 2.0060 285° West 471 542 34,000  Level FlightAware ADS-B
Fri 07:55:25 AM 53.2316 1.9164 285° West 480 552 34,000  Level FlightAware UK
Fri 07:55:43 AM 53.2412 1.8530 284° West 480 552 34,000  Level FlightAware UK
Fri 07:55:43 AM 53.2410 1.8560 284° West 471 542 34,000 419 Level FlightAware ADS-B
Fri 07:56:26 AM 53.2640 1.7030 284° West 472 543 34,300 628 Climbing FlightAware ADS-B
Fri 07:57:09 AM 53.2870 1.5530 284° West 470 541 34,900 724 Climbing FlightAware ADS-B
Fri 07:57:24 AM 53.2950 1.4979 284° West 470 541 35,000 500 Climbing FlightAware ADS-B
Fri 07:57:57 AM 53.3123 1.3816 284° West 472 543 35,300 492 Climbing FlightAware ADS-B
Fri 07:58:25 AM 53.3267 1.2835 284° West 476 548 35,500 585 Climbing FlightAware UK
Fri 07:58:38 AM 53.3337 1.2368 284° West 472 543 35,700 600 Climbing FlightAware ADS-B
Fri 07:58:55 AM 53.3424 1.1776 284° West 478 550 35,800 545 Climbing FlightAware UK
Fri 07:59:11 AM 53.3510 1.1220 284° West 472 543 36,000 414 Climbing FlightAware ADS-B
Fri 07:59:24 AM 53.3573 1.0753 283° West 472 543 36,000 -162 Level FlightAware ADS-B
Fri 07:59:48 AM 53.3700 0.9875 283° West 480 552 35,900  Descending FlightAware UK
Fri 08:00:00 AM 53.3758 0.9477 283° West 470 541 36,000  Climbing FlightAware ADS-B
Fri 08:00:24 AM 53.3884 0.8605 283° West 478 550 35,900  Descending FlightAware UK
Fri 08:00:38 AM 53.3940 0.8210 283° West 468 539 36,000 171 Climbing FlightAware ADS-B
Fri 08:00:59 AM 53.4056 0.7402 284° West 470 541 36,000  Level FlightAware ADS-B
Fri 08:01:30 AM 53.4213 0.6295 283° West 470 541 36,000  Level FlightAware ADS-B
Fri 08:02:01 AM 53.4364 0.5223 283° West 469 540 36,000  Level FlightAware ADS-B
Fri 08:02:24 AM 53.4480 0.4391 283° West 476 548 36,000  Level FlightAware UK
Fri 08:02:42 AM 53.4567 0.3763 283° West 476 548 36,000  Level FlightAware UK
Fri 08:02:50 AM 53.4607 0.3477 283° West 468 539 36,000  Level FlightAware ADS-B
Fri 08:03:27 AM 53.4785 0.2189 283° West 468 539 36,000  Level FlightAware ADS-B
Fri 08:04:00 AM 53.4948 0.1000 283° West 468 539 36,000  Level FlightAware ADS-B
Fri 08:04:18 AM 53.5033 0.0376 283° West 478 550 36,000  Level FlightAware UK
Fri 08:04:31 AM 53.5094 -0.0076 283° West 467 537 36,000  Level FlightAware ADS-B
Fri 08:05:03 AM 53.5246 -0.1201 283° West 467 537 36,000  Level FlightAware ADS-B
Fri 08:05:30 AM 53.5374 -0.2160 283° West 478 550 36,000  Level FlightAware UK
Fri 08:06:06 AM 53.5542 -0.3430 283° West 478 550 36,000  Level FlightAware UK
Fri 08:06:11 AM 53.5560 -0.3570 283° West 466 536 36,000  Level FlightAware ADS-B
Fri 08:06:29 AM 53.5651 -0.4268 283° West 478 550 36,000  Level FlightAware UK
Fri 08:06:59 AM 53.5780 -0.5230 283° West 464 534 36,000  Level FlightAware ADS-B
Fri 08:07:11 AM 53.5845 -0.5733 282° West 465 535 36,000  Level FlightAware ADS-B
Fri 08:07:42 AM 53.5983 -0.6798 282° West 464 534 36,000  Level FlightAware ADS-B
Fri 08:08:19 AM 53.6153 -0.8121 282° West 464 534 36,000  Level FlightAware ADS-B
Fri 08:08:47 AM 53.6279 -0.9112 282° West 474 545 36,000  Level FlightAware UK
Fri 08:09:02 AM 53.6350 -0.9630 282° West 465 535 36,000  Level FlightAware ADS-B
Fri 08:09:10 AM 53.6382 -0.9908 281° West 464 534 36,000  Level FlightAware ADS-B
Fri 08:09:44 AM 53.6533 -1.1110 282° West 465 535 36,000 -122 Level FlightAware ADS-B
Fri 08:09:59 AM 53.6601 -1.1646 282° West 476 548 35,900  Descending FlightAware UK
Fri 08:10:14 AM 53.6665 -1.2174 282° West 465 535 36,000 200 Climbing FlightAware ADS-B
Fri 08:10:29 AM 53.6731 -1.2700 282° West 476 548 36,000  Level FlightAware UK
Fri 08:11:11 AM 53.6913 -1.4189 282° West 476 548 36,000  Level FlightAware UK
Fri 08:11:22 AM 53.6960 -1.4540 282° West 464 534 36,000  Level FlightAware ADS-B
Fri 08:11:53 AM 53.7094 -1.5676 282° West 476 548 36,000  Level FlightAware UK
Fri 08:11:59 AM 53.7110 -1.5790 282° West 463 533 36,000  Level FlightAware ADS-B
Fri 08:12:17 AM 53.7198 -1.6519 282° West 476 548 36,000  Level FlightAware UK
Fri 08:12:35 AM 53.7275 -1.7156 282° West 476 548 36,000  Level FlightAware UK
Fri 08:12:44 AM 53.7300 -1.7410 282° West 465 535 36,000 -167 Level FlightAware ADS-B
Fri 08:13:11 AM 53.7426 -1.8432 282° West 478 550 35,900  Descending FlightAware UK
Fri 08:13:32 AM 53.7515 -1.9184 282° West 464 534 36,000 118 Climbing FlightAware ADS-B
Fri 08:14:02 AM 53.7641 -2.0252 281° West 464 534 36,000 -107 Level FlightAware ADS-B
Fri 08:14:28 AM 53.7751 -2.1190 281° West 478 550 35,900  Descending FlightAware UK
Fri 08:14:51 AM 53.7830 -2.1870 281° West 463 533 36,000 250 Climbing FlightAware ADS-B
Fri 08:14:52 AM 53.7849 -2.2034 281° West 478 550 36,000  Level FlightAware UK
Fri 08:15:28 AM 53.7991 -2.3287 281° West 463 533 36,000 -100 Level FlightAware ADS-B
Fri 08:15:52 AM 53.8091 -2.4161 281° West 476 548 35,900 -143 Descending FlightAware UK
Fri 08:16:10 AM 53.8162 -2.4792 281° West 474 545 35,900 273 Level FlightAware UK
Fri 08:16:14 AM 53.8170 -2.4850 281° West 463 533 36,000 167 Climbing FlightAware ADS-B
Fri 08:16:46 AM 53.8307 -2.6075 281° West 478 550 36,000  Level FlightAware UK
Fri 08:16:58 AM 53.8350 -2.6430 281° West 463 533 36,000  Level FlightAware ADS-B
Fri 08:17:38 AM 53.8500 -2.7820 281° West 462 532 36,000 -143 Level FlightAware ADS-B
Fri 08:17:40 AM 53.8520 -2.7984 281° West 476 548 35,900  Descending FlightAware UK
Fri 08:18:04 AM 53.8612 -2.8828 281° West 476 548 36,000 146 Climbing FlightAware UK
Fri 08:18:21 AM 53.8640 -2.9050 280° West 462 532 36,000  Level FlightAware ADS-B
Fri 08:18:22 AM 53.8682 -2.9467 280° West 476 548 36,000  Level FlightAware UK
Fri 08:19:04 AM 53.8830 -3.0840 280° West 462 532 36,000  Level FlightAware ADS-B
Fri 08:19:22 AM 53.8910 -3.1593 280° West 478 550 36,000  Level FlightAware UK
Fri 08:19:40 AM 53.8979 -3.2233 280° West 476 548 36,000  Level FlightAware UK
Fri 08:19:43 AM 53.8980 -3.2260 280° West 463 533 36,000  Level FlightAware ADS-B
Fri 08:19:58 AM 53.9048 -3.2873 280° West 476 548 36,000  Level FlightAware UK
Fri 08:20:28 AM 53.9150 -3.3870 280° West 464 534 36,000  Level FlightAware ADS-B
Fri 08:21:05 AM 53.9290 -3.5190 280° West 463 533 36,000  Level FlightAware ADS-B
Fri 08:21:09 AM 53.9315 -3.5436 280° West 478 550 36,000  Level FlightAware UK
Fri 08:21:21 AM 53.9359 -3.5865 280° West 480 552 36,000  Level FlightAware UK
Fri 08:21:50 AM 53.9500 -3.6820 280° West 464 534 36,000  Level FlightAware ADS-B
Fri 08:22:21 AM 53.9805 -3.7887 280° West 478 550 36,000  Level FlightAware UK
Fri 08:22:29 AM 53.9870 -3.8080 280° West 465 535 36,000  Level FlightAware ADS-B
Fri 08:23:12 AM 54.0340 -3.9500 280° West 465 535 36,000 -130 Level FlightAware ADS-B
Fri 08:23:15 AM 54.0380 -3.9598 280° West 478 550 35,900 -286 Descending FlightAware UK
Fri 08:23:33 AM 54.0572 -4.0167 280° West 478 550 35,900 162 Level FlightAware UK
Fri 08:23:52 AM 54.0760 -4.0720 280° West 464 534 36,000 167 Climbing FlightAware ADS-B
Fri 08:24:09 AM 54.0955 -4.1309 280° West 478 550 36,000  Level FlightAware UK
Fri 08:24:27 AM 54.1146 -4.1881 300° West 476 548 36,000  Level FlightAware UK
Fri 08:24:36 AM 54.1240 -4.2160 300° West 465 535 36,000  Level FlightAware ADS-B
Fri 08:24:51 AM 54.1401 -4.2644 300° West 476 548 36,000  Level FlightAware UK
Fri 08:25:15 AM 54.1654 -4.3409 300° West 478 550 36,000  Level FlightAware UK
Fri 08:25:16 AM 54.1650 -4.3400 300° West 466 536 36,000  Level FlightAware ADS-B
Fri 08:25:51 AM 54.2032 -4.4553 300° West 478 550 36,000  Level FlightAware UK
Fri 08:26:06 AM 54.2190 -4.5020 300° West 466 536 36,000  Level FlightAware ADS-B
Fri 08:26:39 AM 54.2538 -4.6088 300° West 478 550 36,000  Level FlightAware UK
Fri 08:26:47 AM 54.2590 -4.6260 300° West 465 535 36,000  Level FlightAware ADS-B
Fri 08:27:21 AM 54.2980 -4.7433 300° West 476 548 36,000  Level FlightAware UK
Fri 08:27:26 AM 54.3010 -4.7530 300° West 466 536 36,000  Level FlightAware ADS-B
Fri 08:27:57 AM 54.3356 -4.8592 300° West 478 550 36,000  Level FlightAware UK
Fri 08:28:08 AM 54.3470 -4.8940 300° West 466 536 36,000  Level FlightAware ADS-B
Fri 08:28:39 AM 54.3793 -4.9939 300° West 480 552 36,000  Level FlightAware UK
Fri 08:28:52 AM 54.3920 -5.0340 300° West 466 536 36,000 -200 Level FlightAware ADS-B
Fri 08:29:09 AM 54.4106 -5.0907 300° West 478 550 35,900  Descending FlightAware UK
Fri 08:29:27 AM 54.4291 -5.1489 299° West 478 550 36,000 240 Climbing FlightAware UK
Fri 08:29:34 AM 54.4340 -5.1630 299° West 465 535 36,000 -167 Level FlightAware ADS-B
Fri 08:30:03 AM 54.4663 -5.2653 299° West 480 552 35,900  Descending FlightAware UK
Fri 08:30:17 AM 54.4800 -5.3070 299° West 465 535 36,000 167 Climbing FlightAware ADS-B
Fri 08:30:39 AM 54.5035 -5.3818 299° West 478 550 36,000  Level FlightAware UK
Fri 08:30:57 AM 54.5219 -5.4401 299° West 478 550 36,000  Level FlightAware UK
Fri 08:30:57 AM 54.5210 -5.4380 299° West 465 535 36,000  Level FlightAware ADS-B
Fri 08:31:41 AM 54.5650 -5.5780 299° West 466 536 36,000 -83 Level FlightAware ADS-B
Fri 08:32:09 AM 54.5957 -5.6739 299° West 478 550 35,900  Descending FlightAware UK
Fri 08:32:23 AM 54.6100 -5.7190 299° West 466 536 36,000  Climbing FlightAware ADS-B
Fri 08:32:39 AM 54.6264 -5.7716 299° West 478 550 35,900  Descending FlightAware UK
Fri 08:32:57 AM 54.6447 -5.8304 298° West 478 550 36,000 250 Climbing FlightAware UK
Fri 08:33:03 AM 54.6490 -5.8440 298° West 466 536 36,000 -250 Level FlightAware ADS-B
Fri 08:33:21 AM 54.6690 -5.9088 298° West 480 552 35,900  Descending FlightAware UK
Fri 08:33:44 AM 54.6920 -5.9830 299° West 468 539 36,000  Climbing FlightAware ADS-B
Fri 08:33:45 AM 54.6938 -5.9876 299° West 478 550 35,900  Descending FlightAware UK
Fri 08:34:03 AM 54.7123 -6.0467 299° West 480 552 36,000 143 Climbing FlightAware UK
Fri 08:34:27 AM 54.7366 -6.1259 298° West 482 555 36,000  Level FlightAware UK
Fri 08:34:29 AM 54.7350 -6.1230 298° West 468 539 36,000  Level FlightAware ADS-B
Fri 08:34:45 AM 54.7544 -6.1845 298° West 480 552 36,000 -176 Level FlightAware UK
Fri 08:35:03 AM 54.7726 -6.2437 298° West 480 552 35,900  Descending FlightAware UK
Fri 08:35:10 AM 54.7740 -6.2500 298° West 468 539 36,000  Climbing FlightAware ADS-B
Fri 08:35:27 AM 54.7967 -6.3228 298° West 482 555 35,900  Descending FlightAware UK
Fri 08:35:44 AM 54.8130 -6.3780 298° West 467 537 36,000 333 Climbing FlightAware ADS-B
Fri 08:35:45 AM 54.8147 -6.3822 298° West 482 555 36,000  Level FlightAware UK
Fri 08:36:27 AM 54.8569 -6.5207 298° West 480 552 36,000  Level FlightAware UK
Fri 08:36:29 AM 54.8580 -6.5260 298° West 467 537 36,000 -333 Level FlightAware ADS-B
Fri 08:36:45 AM 54.8749 -6.5802 298° West 480 552 35,900  Descending FlightAware UK
Fri 08:37:03 AM 54.8928 -6.6396 298° West 480 552 36,000 194 Climbing FlightAware UK
Fri 08:37:16 AM 54.9030 -6.6740 298° West 467 537 36,000  Level FlightAware ADS-B
Fri 08:37:33 AM 54.9227 -6.7388 298° West 478 550 36,000 -171 Level FlightAware UK
Fri 08:37:51 AM 54.9405 -6.7984 298° West 478 550 35,900  Descending FlightAware UK
Fri 08:37:58 AM 54.9460 -6.8170 298° West 463 533 36,000 250 Climbing FlightAware ADS-B
Fri 08:38:15 AM 54.9645 -6.8780 298° West 478 550 36,000  Level FlightAware UK
Fri 08:38:33 AM 54.9823 -6.9380 297° West 480 552 36,000  Level FlightAware UK
Fri 08:38:40 AM 54.9890 -6.9600 297° West 464 534 36,000 -250 Level FlightAware ADS-B
Fri 08:38:57 AM 55.0060 -7.0182 297° West 480 552 35,900  Descending FlightAware UK
Fri 08:39:15 AM 55.0240 -7.0783 298° West 480 552 36,000 250 Climbing FlightAware UK
Fri 08:39:21 AM 55.0290 -7.0950 298° West 466 536 36,000 -250 Level FlightAware ADS-B
Fri 08:39:39 AM 55.0478 -7.1590 298° West 482 555 35,900 -167 Descending FlightAware UK
Fri 08:39:57 AM 55.0657 -7.2196 297° West 482 555 35,900 222 Level FlightAware UK
Fri 08:40:06 AM 55.0740 -7.2490 297° West 467 537 36,000  Climbing FlightAware ADS-B
Fri 08:40:21 AM 55.0895 -7.3005 297° West 482 555 35,900  Descending FlightAware UK
Fri 08:40:43 AM 55.1100 -7.3700 297° West 472 543 36,000 250 Climbing FlightAware ADS-B
Fri 08:40:45 AM 55.1132 -7.3818 297° West 482 555 36,000  Level FlightAware UK
Fri 08:41:02 AM 55.1308 -7.4420 297° West 484 557 36,000  Level FlightAware UK
Fri 08:41:20 AM 55.1485 -7.5031 297° West 486 559 36,000  Level FlightAware UK
Fri 08:41:27 AM 55.1530 -7.5180 297° West 472 543 36,000  Level FlightAware ADS-B
Fri 08:41:44 AM 55.1722 -7.5845 297° West 486 559 36,000 -171 Level FlightAware UK
Fri 08:42:02 AM 55.1899 -7.6457 297° West 484 557 35,900  Descending FlightAware UK
Fri 08:42:08 AM 55.1940 -7.6610 297° West 472 543 36,000  Climbing FlightAware ADS-B
Fri 08:42:26 AM 55.2134 -7.7274 297° West 484 557 35,900  Descending FlightAware UK
Fri 08:42:53 AM 55.2380 -7.8130 297° West 472 543 36,000 143 Climbing FlightAware ADS-B
Fri 08:43:08 AM 55.2544 -7.8705 297° West 484 557 36,000  Level FlightAware UK
Fri 08:43:26 AM 55.2719 -7.9320 297° West 486 559 36,000  Level FlightAware UK
Fri 08:43:33 AM 55.2770 -7.9500 297° West 471 542 36,000 -250 Level FlightAware ADS-B
Fri 08:43:50 AM 55.2952 -8.0139 297° West 486 559 35,900  Descending FlightAware UK
Fri 08:44:13 AM 55.3160 -8.0880 297° West 471 542 36,000  Climbing FlightAware ADS-B
Fri 08:44:14 AM 55.3187 -8.0957 297° West 484 557 35,900 -240 Descending FlightAware UK
Fri 08:44:38 AM 55.3420 -8.1777 297° West 484 557 35,900 143 Level FlightAware UK
Fri 08:44:56 AM 55.3593 -8.2392 296° West 486 559 36,000 214 Climbing FlightAware UK
Fri 08:45:06 AM 55.3660 -8.2640 296° West 470 541 36,000 -200 Level FlightAware ADS-B
Fri 08:45:26 AM 55.3881 -8.3418 296° West 484 557 35,900 -158 Descending FlightAware UK
Fri 08:45:44 AM 55.4053 -8.4034 296° West 486 559 35,900 200 Level FlightAware UK
Fri 08:45:56 AM 55.4150 -8.4390 296° West 470 541 36,000  Climbing FlightAware ADS-B
Fri 08:46:14 AM 55.4338 -8.5060 296° West 482 555 35,900 -167 Descending FlightAware UK
Fri 08:46:32 AM 55.4510 -8.5675 296° West 484 557 35,900 316 Level FlightAware UK
Fri 08:46:33 AM 55.4510 -8.5680 296° West 464 534 36,000  Climbing FlightAware ADS-B
Fri 08:46:50 AM 55.4681 -8.6289 296° West 484 557 35,900 -171 Descending FlightAware UK
Fri 08:47:08 AM 55.4851 -8.6904 296° West 484 557 35,900 231 Level FlightAware UK
Fri 08:47:16 AM 55.4900 -8.7100 296° West 463 533 36,000  Climbing FlightAware ADS-B
Fri 08:47:32 AM 55.5075 -8.7718 296° West 484 557 35,900  Descending FlightAware UK
Fri 08:47:50 AM 55.5243 -8.8333 296° West 484 557 36,000 231 Climbing FlightAware UK
Fri 08:47:58 AM 55.5310 -8.8580 296° West 464 534 36,000 -250 Level FlightAware ADS-B
Fri 08:48:14 AM 55.5468 -8.9154 296° West 482 555 35,900 -176 Descending FlightAware UK
Fri 08:48:32 AM 55.5636 -8.9771 296° West 482 555 35,900 207 Level FlightAware UK
Fri 08:48:43 AM 55.5730 -9.0110 296° West 463 533 36,000 118 Climbing FlightAware ADS-B
Fri 08:49:23 AM 55.6090 -9.1460 295° West 465 535 36,000  Level FlightAware ADS-B
Fri 08:50:03 AM 55.6460 -9.2810 296° West 467 537 36,000  Level FlightAware ADS-B
Fri 08:50:43 AM 55.6840 -9.4230 295° West 469 540 36,000  Level FlightAware ADS-B
Fri 08:51:58 AM 55.7530 -9.6840 295° West 469 540 36,000  Level FlightAware ADS-B
Fri 08:52:35 AM 55.7870 -9.8120 295° West 469 540 36,000  Level FlightAware ADS-B
Fri 08:53:20 AM 55.8270 -9.9630 295° West 472 543 36,000  Level FlightAware ADS-B
Fri 08:54:16 AM 55.8730 -10.1450 294° West 469 540 36,000  Level FlightAware ADS-B
Fri 08:54:58 AM 55.9160 -10.3100 295° West 474 545 36,000  Level FlightAware ADS-B
Fri 08:55:38 AM 55.9550 -10.4600 295° West 473 544 36,000  Level FlightAware ADS-B
Fri 08:56:26 AM 55.9950 -10.6190 294° West 472 543 36,000  Level FlightAware ADS-B
Fri 08:57:03 AM 56.0310 -10.7600 295° West 471 542 36,000  Level FlightAware ADS-B
Fri 08:57:49 AM 56.0720 -10.9220 294° West 470 541 36,000  Level FlightAware ADS-B
Fri 08:58:28 AM 56.1050 -11.0550 294° West 469 540 36,000  Level FlightAware ADS-B
Fri 08:59:08 AM 56.1410 -11.2000 294° West 465 535 36,000  Level FlightAware ADS-B
Fri 08:59:53 AM 56.1780 -11.3530 294° West 465 535 36,000  Level FlightAware ADS-B
Fri 09:00:33 AM 56.2150 -11.5050 294° West 464 534 36,000  Level FlightAware ADS-B
Fri 09:01:29 AM 56.2570 -11.6830 293° West 463 533 36,000  Level FlightAware ADS-B
Fri 09:02:13 AM 56.3010 -11.8590 294° West 459 528 36,000  Level FlightAware ADS-B
Fri 09:02:53 AM 56.3350 -12.0020 293° West 462 532 36,000  Level FlightAware ADS-B
Fri 09:03:46 AM 56.3730 -12.1620 293° West 462 532 36,000  Level FlightAware ADS-B
Fri 09:04:33 AM 56.4060 -12.3040 293° West 462 532 36,000  Level FlightAware ADS-B
Fri 09:05:09 AM 56.4320 -12.4120 294° West 462 532 36,000  Level FlightAware ADS-B
Fri 09:05:58 AM 56.4660 -12.5610 292° West 462 532 36,000  Level FlightAware ADS-B
Fri 09:06:35 AM 56.4930 -12.6730 294° West 462 532 36,000  Level FlightAware ADS-B
Fri 09:07:22 AM 56.5260 -12.8150 293° West 462 532 36,000  Level FlightAware ADS-B
Fri 09:07:58 AM 56.5520 -12.9250 293° West 462 532 36,000  Level FlightAware ADS-B
Fri 09:08:47 AM 56.5860 -13.0730 293° West 462 532 36,000  Level FlightAware ADS-B
Fri 09:09:23 AM 56.6120 -13.1830 293° West 462 532 36,000  Level FlightAware ADS-B
Fri 09:10:10 AM 56.6450 -13.3260 293° West 462 532 36,000  Level FlightAware ADS-B
Fri 09:10:48 AM 56.6720 -13.4410 293° West 462 532 36,000  Level FlightAware ADS-B
Fri 09:11:32 AM 56.7030 -13.5750 293° West 462 532 36,000  Level FlightAware ADS-B
Fri 09:12:18 AM 56.7360 -13.7150 293° West 462 532 36,000  Level FlightAware ADS-B
Fri 09:12:56 AM 56.7630 -13.8310 293° West 462 532 36,000  Level FlightAware ADS-B
Fri 09:15:00 AM 56.8377 -14.2691 287° West  Level FlightAware Approximate
Fri 09:16:00 AM 56.8732 -14.4818 287° West  Level FlightAware Approximate
Fri 09:17:00 AM 56.9084 -14.6948 287° West  Level FlightAware Approximate
Fri 09:18:00 AM 56.9433 -14.9083 287° West  Level FlightAware Approximate
Fri 09:19:00 AM 56.9935 -15.1238 293° West  Level FlightAware Approximate
Fri 09:20:00 AM 57.0434 -15.3399 293° West  Level FlightAware Approximate
Fri 09:21:00 AM 57.0928 -15.5565 293° West  Level FlightAware Approximate
Fri 09:22:00 AM 57.1419 -15.7738 293° West  Level FlightAware Approximate
Fri 09:23:00 AM 57.1907 -15.9916 293° West  Level FlightAware Approximate
Fri 09:24:00 AM 57.2390 -16.2100 292° West  Level FlightAware Approximate
Fri 09:25:00 AM 57.2870 -16.4290 292° West  Level FlightAware Approximate
Fri 09:26:00 AM 57.3346 -16.6485 292° West  Level FlightAware Approximate
Fri 09:27:00 AM 57.3818 -16.8686 292° West  Level FlightAware Approximate
Fri 09:28:00 AM 57.4286 -17.0893 292° West  Level FlightAware Approximate
Fri 09:29:00 AM 57.4751 -17.3105 291° West  Level FlightAware Approximate
Fri 09:30:00 AM 57.5211 -17.5323 291° West  Level FlightAware Approximate
Fri 09:31:00 AM 57.5668 -17.7547 291° West  Level FlightAware Approximate
Fri 09:32:00 AM 57.6120 -17.9776 291° West  Level FlightAware Approximate
Fri 09:33:00 AM 57.6569 -18.2010 291° West  Level FlightAware Approximate
Fri 09:34:00 AM 57.7014 -18.4250 290° West  Level FlightAware Approximate
Fri 09:35:00 AM 57.7455 -18.6496 290° West  Level FlightAware Approximate
Fri 09:36:00 AM 57.7891 -18.8747 290° West  Level FlightAware Approximate
Fri 09:37:00 AM 57.8324 -19.1004 290° West  Level FlightAware Approximate
Fri 09:38:00 AM 57.8753 -19.3265 290° West  Level FlightAware Approximate
Fri 09:39:00 AM 57.9178 -19.5533 290° West  Level FlightAware Approximate
Fri 09:40:00 AM 57.9599 -19.7805 289° West  Level FlightAware Approximate
Fri 09:40:14 AM 58.0000 -20.0000 295° West 472 543 36,000  Level ETMS Enhanced Traffic Management System
Fri 09:41:00 AM 58.0025 -20.0098 295° West  Level FlightAware Approximate
Fri 09:42:00 AM 58.0572 -20.2278 295° West  Level FlightAware Approximate
Fri 09:43:00 AM 58.1115 -20.4465 295° West  Level FlightAware Approximate
Fri 09:44:00 AM 58.1655 -20.6659 295° West  Level FlightAware Approximate
Fri 09:45:00 AM 58.2191 -20.8859 295° West  Level FlightAware Approximate
Fri 09:46:00 AM 58.3856 -21.5842 294° West 472 543 36,000  Level FlightAware Transoceanic
Fri 09:47:00 AM 58.4391 -21.8134 294° West 472 543 36,000  Level FlightAware Transoceanic
Fri 09:48:00 AM 58.4922 -22.0432 294° West 472 543 36,000  Level FlightAware Transoceanic
Fri 09:49:00 AM 58.5448 -22.2737 294° West 472 543 36,000  Level FlightAware Transoceanic
Fri 09:50:00 AM 58.5971 -22.5049 293° West 472 543 36,000  Level FlightAware Transoceanic
Fri 09:51:00 AM 58.6489 -22.7368 293° West 472 543 36,000  Level FlightAware Transoceanic
Fri 09:52:00 AM 58.7003 -22.9694 293° West 472 543 36,000  Level FlightAware Transoceanic
Fri 09:53:00 AM 58.7513 -23.2026 293° West 472 543 36,000  Level FlightAware Transoceanic
Fri 09:54:00 AM 58.8019 -23.4366 293° West 472 543 36,000  Level FlightAware Transoceanic
Fri 09:55:00 AM 58.8520 -23.6712 292° West 472 543 36,000  Level FlightAware Transoceanic
Fri 09:56:00 AM 58.9017 -23.9065 292° West 472 543 36,000  Level FlightAware Transoceanic
Fri 09:57:00 AM 58.9510 -24.1424 292° West 472 543 36,000  Level FlightAware Transoceanic
Fri 09:58:00 AM 58.9999 -24.3791 292° West 472 543 36,000  Level FlightAware Transoceanic
Fri 09:59:00 AM 59.0483 -24.6164 292° West 472 543 36,000  Level FlightAware Transoceanic
Fri 10:00:00 AM 59.0963 -24.8544 291° West 472 543 36,000  Level FlightAware Transoceanic
Fri 10:01:00 AM 59.1438 -25.0930 291° West 472 543 36,000  Level FlightAware Transoceanic
Fri 10:02:00 AM 59.1909 -25.3323 291° West 472 543 36,000  Level FlightAware Transoceanic
Fri 10:03:00 AM 59.2376 -25.5723 291° West 472 543 36,000  Level FlightAware Transoceanic
Fri 10:04:00 AM 59.2838 -25.8129 290° West 472 543 36,000  Level FlightAware Transoceanic
Fri 10:05:00 AM 59.3296 -26.0542 290° West 472 543 36,000  Level FlightAware Transoceanic
Fri 10:06:00 AM 59.3750 -26.2961 290° West 472 543 36,000  Level FlightAware Transoceanic
Fri 10:07:00 AM 59.4198 -26.5387 290° West 472 543 36,000  Level FlightAware Transoceanic
Fri 10:08:00 AM 59.4643 -26.7819 290° West 472 543 36,000  Level FlightAware Transoceanic
Fri 10:09:00 AM 59.5083 -27.0257 289° West 472 543 36,000  Level FlightAware Transoceanic
Fri 10:10:00 AM 59.5518 -27.2702 289° West 472 543 36,000  Level FlightAware Transoceanic
Fri 10:11:00 AM 59.5948 -27.5153 289° West 472 543 36,000  Level FlightAware Transoceanic
Fri 10:12:00 AM 59.6375 -27.7610 289° West 472 543 36,000  Level FlightAware Transoceanic
Fri 10:13:00 AM 59.6796 -28.0074 289° West 472 543 36,000  Level FlightAware Transoceanic
Fri 10:14:00 AM 59.7213 -28.2543 288° West 472 543 36,000  Level FlightAware Transoceanic
Fri 10:15:00 AM 59.7625 -28.5019 288° West 472 543 36,000  Level FlightAware Transoceanic
Fri 10:16:00 AM 59.8033 -28.7501 288° West 472 543 36,000  Level FlightAware Transoceanic
Fri 10:17:00 AM 59.8436 -28.9989 288° West 472 543 36,000  Level FlightAware Transoceanic
Fri 10:18:00 AM 59.8834 -29.2483 288° West 472 543 36,000  Level FlightAware Transoceanic
Fri 10:19:00 AM 59.9227 -29.4983 287° West 472 543 36,000  Level FlightAware Transoceanic
Fri 10:20:00 AM 59.9616 -29.7488 287° West 472 543 36,000  Level FlightAware Transoceanic
Fri 10:21:00 AM 59.9990 -29.9931 287° West  Level FlightAware Approximate
Fri 10:22:00 AM 60.0357 -30.2379 287° West  Level FlightAware Approximate
Fri 10:23:00 AM 60.0320 -30.2325 285° West  Level FlightAware Approximate
Fri 10:24:00 AM 60.0654 -30.4795 285° West  Level FlightAware Approximate
Fri 10:25:00 AM 60.0984 -30.7270 285° West  Level FlightAware Approximate
Fri 10:26:00 AM 60.1309 -30.9749 285° West  Level FlightAware Approximate
Fri 10:27:00 AM 60.1630 -31.2234 285° West  Level FlightAware Approximate
Fri 10:28:00 AM 60.1944 -31.4724 284° West  Level FlightAware Approximate
Fri 10:29:00 AM 60.2252 -31.7220 284° West  Level FlightAware Approximate
Fri 10:30:00 AM 60.2554 -31.9721 284° West  Level FlightAware Approximate
Fri 10:31:00 AM 60.2852 -32.2226 284° West  Level FlightAware Approximate
Fri 10:32:00 AM 60.3145 -32.4736 283° West  Level FlightAware Approximate
Fri 10:33:00 AM 60.3434 -32.7250 283° West  Level FlightAware Approximate
Fri 10:34:00 AM 60.3729 -32.9764 284° West  Level FlightAware Approximate
Fri 10:35:00 AM 60.4022 -33.2280 283° West  Level FlightAware Approximate
Fri 10:36:00 AM 60.4311 -33.4801 283° West  Level FlightAware Approximate
Fri 10:37:00 AM 60.4595 -33.7327 283° West  Level FlightAware Approximate
Fri 10:38:00 AM 60.4874 -33.9856 283° West  Level FlightAware Approximate
Fri 10:39:00 AM 60.5148 -34.2391 283° West  Level FlightAware Approximate
Fri 10:40:00 AM 60.5418 -34.4929 282° West  Level FlightAware Approximate
Fri 10:41:00 AM 60.5682 -34.7472 282° West  Level FlightAware Approximate
Fri 10:42:00 AM 60.5942 -35.0018 282° West  Level FlightAware Approximate
Fri 10:43:00 AM 60.6197 -35.2569 282° West  Level FlightAware Approximate
Fri 10:44:00 AM 60.6447 -35.5124 281° West  Level FlightAware Approximate
Fri 10:45:00 AM 60.6693 -35.7683 281° West  Level FlightAware Approximate
Fri 10:46:00 AM 60.6933 -36.0245 281° West  Level FlightAware Approximate
Fri 10:47:00 AM 60.7168 -36.2812 281° West  Level FlightAware Approximate
Fri 10:48:00 AM 60.7391 -36.5296 281° West  Level FlightAware Approximate
Fri 10:49:00 AM 60.7610 -36.7784 280° West  Level FlightAware Approximate
Fri 10:50:00 AM 60.7823 -37.0275 280° West  Level FlightAware Approximate
Fri 10:51:00 AM 60.8032 -37.2770 280° West  Level FlightAware Approximate
Fri 10:52:00 AM 60.8237 -37.5268 280° West  Level FlightAware Approximate
Fri 10:53:00 AM 60.8437 -37.7769 279° West  Level FlightAware Approximate
Fri 10:54:00 AM 60.8632 -38.0273 279° West  Level FlightAware Approximate
Fri 10:55:00 AM 60.8823 -38.2780 279° West  Level FlightAware Approximate
Fri 10:56:00 AM 60.9008 -38.5290 279° West  Level FlightAware Approximate
Fri 10:57:00 AM 60.9190 -38.7803 279° West  Level FlightAware Approximate
Fri 10:58:00 AM 60.9366 -39.0319 278° West  Level FlightAware Approximate
Fri 10:59:00 AM 60.9538 -39.2837 278° West  Level FlightAware Approximate
Fri 10:59:24 AM 61.0333 -40.3500 274° West 520 598 36,000  Level Gander Center
Fri 11:00:00 AM 60.9705 -39.5359 278° West  Level FlightAware Approximate
Fri 11:00:24 AM 61.0333 -40.6333 270° West 520 598 36,000  Level Gander Center
Fri 11:01:00 AM 60.9868 -39.7882 278° West  Level FlightAware Approximate
Fri 11:01:24 AM 61.0500 -40.9500 276° West 520 598 36,000  Level Gander Center
Fri 11:02:00 AM 61.0015 -40.0411 274° West  Level FlightAware Approximate
Fri 11:02:24 AM 61.0667 -41.2167 277° West 520 598 36,000  Level Gander Center
Fri 11:03:00 AM 61.0106 -40.2952 274° West  Level FlightAware Approximate
Fri 11:03:24 AM 61.0667 -41.5000 270° West 520 598 36,000  Level Gander Center
Fri 11:04:00 AM 61.0193 -40.5495 274° West  Level FlightAware Approximate
Fri 11:04:24 AM 61.0833 -41.8167 276° West 520 598 36,000  Level Gander Center
Fri 11:05:24 AM 61.0833 -42.1000 270° West 520 598 36,000  Level Gander Center
Fri 11:06:24 AM 61.0833 -42.4167 270° West 520 598 36,000  Level Gander Center
Fri 11:07:24 AM 61.1000 -42.6833 277° West 520 598 36,000  Level Gander Center
Fri 11:08:24 AM 61.1000 -42.9667 270° West 520 598 36,000  Level Gander Center
Fri 11:09:24 AM 61.1000 -43.2833 270° West 520 598 36,000  Level Gander Center
Fri 11:10:24 AM 61.1000 -43.5667 270° West 520 598 36,000  Level Gander Center
Fri 11:11:24 AM 61.1167 -43.8833 276° West 520 598 36,000  Level Gander Center
Fri 11:12:24 AM 61.1167 -44.1667 270° West 520 598 36,000  Level Gander Center
Fri 11:13:24 AM 61.1167 -44.4500 270° West 520 598 36,000  Level Gander Center
Fri 11:14:24 AM 61.1167 -44.7667 270° West 520 598 36,000  Level Gander Center
Fri 11:15:24 AM 61.1167 -45.0333 270° West 520 598 36,000  Level Gander Center
Fri 11:16:24 AM 61.1167 -45.3500 270° West 520 598 36,000  Level Gander Center
Fri 11:17:24 AM 61.1167 -45.6333 270° West 520 598 36,000  Level Gander Center
Fri 11:18:24 AM 61.1167 -45.9500 270° West 520 598 36,000  Level Gander Center
Fri 11:19:24 AM 61.1167 -46.2333 270° West 520 598 36,000  Level Gander Center
Fri 11:20:24 AM 61.1167 -46.5500 270° West 520 598 36,000  Level Gander Center
Fri 11:21:24 AM 61.1167 -46.8333 270° West 520 598 36,000  Level Gander Center
Fri 11:22:24 AM 61.1000 -47.1167 263° West 520 598 36,000  Level Gander Center
Fri 11:23:24 AM 61.0833 -47.4333 264° West 520 598 36,000  Level Gander Center
Fri 11:24:24 AM 61.0833 -47.7167 270° West 530 610 36,000  Level Gander Center
Fri 11:25:24 AM 61.0833 -48.0333 270° West 520 598 36,000  Level Gander Center
Fri 11:26:24 AM 61.0667 -48.3167 263° West 520 598 36,000  Level Gander Center
Fri 11:27:24 AM 61.0667 -48.6333 270° West 520 598 36,000  Level Gander Center
Fri 11:28:24 AM 61.0667 -48.9500 270° West 520 598 36,000  Level Gander Center
Fri 11:29:24 AM 61.0500 -49.2333 263° West 520 598 36,000  Level Gander Center
Fri 11:30:24 AM 61.0500 -49.5333 270° West 520 598 36,000  Level Gander Center
Fri 11:31:24 AM 61.0333 -49.8167 263° West 530 610 36,000  Level Gander Center
Fri 11:32:24 AM 60.9833 -50.1167 251° West 520 598 36,000  Level Gander Center
Fri 11:33:24 AM 60.9500 -50.4000 256° West 520 598 36,000  Level Gander Center
Fri 11:34:24 AM 60.9000 -50.7000 251° West 520 598 36,000  Level Gander Center
Fri 11:35:24 AM 60.8667 -50.9833 257° West 520 598 36,000  Level Gander Center
Fri 11:36:24 AM 60.8167 -51.2333 248° West 520 598 36,000  Level Gander Center
Fri 11:37:24 AM 60.7833 -51.5333 257° West 520 598 36,000  Level Gander Center
Fri 11:38:24 AM 60.7333 -51.8167 250° West 520 598 36,000  Level Gander Center
Fri 11:39:24 AM 60.6833 -52.1000 250° West 520 598 36,000  Level Gander Center
Fri 11:39:46 AM 60.6667 -52.1667 243° Southwest 520 598 36,000  Level Gander Center
Fri 11:40:46 AM 60.6167 -52.4500 250° West 520 598 36,000  Level Gander Center
Fri 11:41:46 AM 60.5667 -52.7500 251° West 520 598 36,000  Level Gander Center
Fri 11:42:24 AM 60.5333 -52.9167 248° West 520 598 36,000  Level Gander Center
Fri 11:43:46 AM 60.4667 -53.2833 250° West 520 598 36,000  Level Gander Center
Fri 11:44:24 AM 60.4333 -53.4500 248° West 520 598 36,000  Level Gander Center
Fri 11:45:24 AM 60.3833 -53.7333 250° West 520 598 36,000  Level Gander Center
Fri 11:45:46 AM 60.3667 -53.8000 243° Southwest 520 598 36,000  Level Gander Center
Fri 11:46:24 AM 60.3333 -54.0167 253° West 520 598 36,000  Level Gander Center
Fri 11:47:24 AM 60.2833 -54.2667 248° West 520 598 36,000  Level Gander Center
Fri 11:47:46 AM 60.2667 -54.3667 251° West 520 598 36,000  Level Gander Center
Fri 11:48:46 AM 60.2167 -54.6500 251° West 520 598 36,000  Level Gander Center
Fri 11:49:24 AM 60.1833 -54.8167 248° West 520 598 36,000  Level Gander Center
Fri 11:49:46 AM 60.1500 -54.9333 240° Southwest 520 598 36,000  Level Gander Center
Fri 11:50:46 AM 60.1000 -55.1667 247° West 520 598 36,000  Level Gander Center
Fri 11:51:46 AM 60.0500 -55.4500 251° West 520 598 36,000  Level Gander Center
Fri 11:52:46 AM 59.9833 -55.7167 244° Southwest 520 598 36,000  Level Gander Center
Fri 11:53:46 AM 59.9333 -56.0000 251° West 530 610 36,000  Level Gander Center
Fri 11:54:46 AM 59.8833 -56.2667 250° West 520 598 36,000  Level Gander Center
Fri 11:55:46 AM 59.8167 -56.5167 242° Southwest 520 598 36,000  Level Gander Center
Fri 11:56:46 AM 59.7667 -56.7833 250° West 520 598 36,000  Level Gander Center
Fri 11:57:46 AM 59.7167 -57.0500 250° West 520 598 36,000  Level Gander Center
Fri 11:58:46 AM 59.6667 -57.3333 251° West 520 598 36,000  Level Gander Center
Fri 11:59:46 AM 59.6000 -57.5667 241° Southwest 520 598 36,000  Level Gander Center
Fri 12:00:46 PM 59.5500 -57.8333 250° West 520 598 36,000  Level Gander Center
Fri 12:01:24 PM 59.5000 -57.9667 234° Southwest 520 598 36,000  Level Gander Center
Fri 12:02:24 PM 59.4500 -58.2333 250° West 520 598 36,000  Level Gander Center
Fri 12:02:46 PM 59.4167 -58.3333 237° Southwest 520 598 36,000  Level Gander Center
Fri 12:03:46 PM 59.3667 -58.6000 250° West 520 598 36,000  Level Gander Center
Fri 12:04:46 PM 59.3000 -58.8667 244° Southwest 520 598 36,000  Level Gander Center
Fri 12:05:46 PM 59.2333 -59.1000 241° Southwest 520 598 36,000  Level Gander Center
Fri 12:06:46 PM 59.1667 -59.3667 244° Southwest 520 598 36,000  Level Gander Center
Fri 12:07:46 PM 59.1167 -59.6333 250° West 520 598 36,000  Level Gander Center
Fri 12:08:46 PM 59.0500 -59.8500 239° Southwest 510 587 36,000  Level Gander Center
Fri 12:09:46 PM 58.9833 -60.1167 244° Southwest 520 598 36,000  Level Gander Center
Fri 12:10:46 PM 58.9167 -60.3500 241° Southwest 520 598 36,000  Level Gander Center
Fri 12:11:24 PM 58.8667 -60.5167 240° Southwest 520 598 36,000  Level Gander Center
Fri 12:12:24 PM 58.8000 -60.7333 239° Southwest 520 598 36,000  Level Gander Center
Fri 12:12:46 PM 58.7833 -60.8333 252° West 520 598 36,000  Level Gander Center
Fri 12:13:46 PM 58.7000 -61.0833 237° Southwest 520 598 36,000  Level Gander Center
Fri 12:14:46 PM 58.6333 -61.3167 241° Southwest 520 598 36,000  Level Gander Center
Fri 12:15:46 PM 58.5667 -61.5667 243° Southwest 520 598 36,000  Level Gander Center
Fri 12:16:24 PM 58.5167 -61.7333 240° Southwest 530 610 36,000  Level Gander Center
Fri 12:17:24 PM 58.4500 -61.9500 240° Southwest 520 598 36,000  Level Gander Center
Fri 12:17:46 PM 58.4167 -62.0500 238° Southwest 520 598 36,000  Level Gander Center
Fri 12:18:46 PM 58.3333 -62.3000 238° Southwest 520 598 36,000  Level Gander Center
Fri 12:19:24 PM 58.3000 -62.4167 242° Southwest 520 598 36,000  Level Gander Center
Fri 12:20:24 PM 58.2333 -62.6500 242° Southwest 510 587 36,000  Level Gander Center
Fri 12:20:46 PM 58.2000 -62.7333 233° Southwest 510 587 36,000  Level Gander Center
Fri 12:21:46 PM 58.1333 -62.9833 243° Southwest 510 587 36,000  Level Gander Center
Fri 12:22:24 PM 58.0667 -63.1167 227° Southwest 510 587 36,000  Level Gander Center
Fri 12:22:46 PM 58.0333 -63.2000 233° Southwest 510 587 36,000  Level Gander Center
Fri 12:23:46 PM 57.9667 -63.4167 240° Southwest 510 587 36,000  Level Gander Center
Fri 12:24:46 PM 57.9000 -63.6333 240° Southwest 510 587 36,000  Level Gander Center
Fri 12:25:46 PM 57.8167 -63.8833 238° Southwest 510 587 36,000  Level Gander Center
Fri 12:26:46 PM 57.7333 -64.1000 234° Southwest 510 587 36,000  Level Gander Center
Fri 12:27:46 PM 57.6667 -64.3000 238° Southwest 500 575 36,000  Level Gander Center
Fri 12:28:46 PM 57.6000 -64.5167 240° Southwest 510 587 36,000 250 Level Gander Center
Fri 12:29:46 PM 57.5167 -64.7667 238° Southwest 510 587 36,500 750 Climbing Gander Center
Fri 12:30:46 PM 57.4500 -64.9667 238° Southwest 500 575 37,500 650 Climbing Gander Center
Fri 12:31:46 PM 57.3667 -65.2167 238° Southwest 500 575 37,800 250 Climbing Gander Center
Fri 12:32:46 PM 57.2833 -65.4167 232° Southwest 500 575 38,000 100 Climbing Gander Center
Fri 12:33:46 PM 57.2167 -65.6333 240° Southwest 510 587 38,000  Level Gander Center
Fri 12:34:46 PM 57.1333 -65.8333 233° Southwest 500 575 38,000  Level Gander Center
Fri 12:35:46 PM 57.0500 -66.0667 237° Southwest 500 575 38,000  Level Gander Center
Fri 12:36:46 PM 56.9667 -66.2667 233° Southwest 500 575 38,000  Level Gander Center
Fri 12:37:46 PM 56.9000 -66.4833 241° Southwest 500 575 38,000  Level Gander Center
Fri 12:38:46 PM 56.8167 -66.6833 233° Southwest 490 564 38,000  Level Gander Center
Fri 12:39:46 PM 56.7500 -66.8833 239° Southwest 490 564 38,000  Level Gander Center
Fri 12:40:46 PM 56.6667 -67.0833 233° Southwest 490 564 38,000  Level Gander Center
Fri 12:41:46 PM 56.6000 -67.2833 239° Southwest 500 575 38,000  Level Gander Center
Fri 12:42:46 PM 56.5167 -67.4833 233° Southwest 480 552 38,000  Level Gander Center
Fri 12:43:26 PM 56.4667 -67.5667 223° Southwest 490 564 38,000  Level Montreal Center
Fri 12:44:26 PM 56.3833 -67.7667 233° Southwest 480 552 38,000  Level Montreal Center
Fri 12:44:46 PM 56.3667 -67.8833 256° West 480 552 38,000  Level Gander Center
Fri 12:45:46 PM 56.2833 -68.0833 233° Southwest 490 564 38,000  Level Gander Center
Fri 12:46:46 PM 56.2000 -68.3167 237° Southwest 490 564 38,000  Level Gander Center
Fri 12:47:46 PM 56.1167 -68.5000 231° Southwest 480 552 38,000  Level Gander Center
Fri 12:48:46 PM 56.0333 -68.6667 228° Southwest 480 552 38,000  Level Gander Center
Fri 12:49:46 PM 55.9667 -68.8667 239° Southwest 480 552 38,000  Level Gander Center
Fri 12:50:46 PM 55.8833 -69.0667 233° Southwest 480 552 38,000  Level Gander Center
Fri 12:51:46 PM 55.8167 -69.2667 239° Southwest 480 552 38,000  Level Gander Center
Fri 12:52:46 PM 55.7333 -69.4500 231° Southwest 480 552 38,000  Level Gander Center
Fri 12:53:46 PM 55.6500 -69.6500 234° Southwest 480 552 38,000  Level Gander Center
Fri 12:54:26 PM 55.6000 -69.7333 223° Southwest 480 552 38,000  Level Montreal Center
Fri 12:55:26 PM 55.5333 -69.8833 232° Southwest 470 541 38,000  Level Montreal Center
Fri 12:56:26 PM 55.4333 -70.0833 229° Southwest 470 541 38,000  Level Montreal Center
Fri 12:57:26 PM 55.3667 -70.2667 237° Southwest 480 552 38,000  Level Montreal Center
Fri 12:58:26 PM 55.2833 -70.4667 234° Southwest 480 552 38,000  Level Montreal Center
Fri 12:58:46 PM 55.2333 -70.5667 229° Southwest 480 552 38,000  Level Gander Center
Fri 12:59:26 PM 55.2167 -70.6500 251° West 480 552 38,000  Level Montreal Center
Fri 01:00:26 PM 55.1167 -70.8333 226° Southwest 480 552 38,000  Level Montreal Center
Fri 01:01:26 PM 55.0333 -71.0167 232° Southwest 480 552 38,000  Level Montreal Center
Fri 01:02:26 PM 54.9500 -71.2167 234° Southwest 470 541 38,000  Level Montreal Center
Fri 01:03:26 PM 54.8667 -71.4000 232° Southwest 480 552 38,000  Level Montreal Center
Fri 01:03:46 PM 54.8333 -71.4833 235° Southwest 480 552 38,000  Level Gander Center
Fri 01:04:46 PM 54.7500 -71.6667 232° Southwest 480 552 38,000  Level Gander Center
Fri 01:05:26 PM 54.7167 -71.7333 229° Southwest 480 552 38,000  Level Montreal Center
Fri 01:06:26 PM 54.6167 -71.9167 227° Southwest 470 541 38,000  Level Montreal Center
Fri 01:06:46 PM 54.5833 -72.0333 244° Southwest 480 552 38,000  Level Gander Center
Fri 01:07:46 PM 54.5000 -72.2167 232° Southwest 480 552 38,000  Level Gander Center
Fri 01:08:26 PM 54.4500 -72.2833 218° Southwest 470 541 38,000  Level Montreal Center
Fri 01:09:26 PM 54.3667 -72.4667 232° Southwest 470 541 38,000  Level Montreal Center
Fri 01:09:46 PM 54.3333 -72.5833 244° Southwest 480 552 38,000  Level Gander Center
Fri 01:10:26 PM 54.2833 -72.6500 218° Southwest 470 541 38,000  Level Montreal Center
Fri 01:11:26 PM 54.2000 -72.8167 230° Southwest 470 541 38,000  Level Montreal Center
Fri 01:12:26 PM 54.1333 -72.9667 233° Southwest 470 541 38,000  Level Montreal Center
Fri 01:13:26 PM 54.0500 -73.1500 232° Southwest 470 541 38,000  Level Montreal Center
Fri 01:14:26 PM 53.9500 -73.3333 227° Southwest 470 541 38,000  Level Montreal Center
Fri 01:15:26 PM 53.8667 -73.5000 230° Southwest 470 541 38,000  Level Montreal Center
Fri 01:16:26 PM 53.7833 -73.6500 227° Southwest 460 529 38,000  Level Montreal Center
Fri 01:17:26 PM 53.7000 -73.8333 233° Southwest 460 529 38,000  Level Montreal Center
Fri 01:18:26 PM 53.6333 -74.0000 236° Southwest 460 529 38,000  Level Montreal Center
Fri 01:19:26 PM 53.5500 -74.1500 227° Southwest 460 529 38,000  Level Montreal Center
Fri 01:20:26 PM 53.4500 -74.3500 230° Southwest 460 529 38,000  Level Montreal Center
Fri 01:20:46 PM 53.4167 -74.4333 236° Southwest 470 541 38,000  Level Gander Center
Fri 01:21:26 PM 53.3667 -74.5000 219° Southwest 460 529 38,000  Level Montreal Center
Fri 01:21:46 PM 53.3333 -74.6000 241° Southwest 470 541 38,000  Level Gander Center
Fri 01:22:46 PM 53.2500 -74.7833 233° Southwest 470 541 38,000  Level Gander Center
Fri 01:23:46 PM 53.1500 -74.9500 225° Southwest 470 541 38,000  Level Gander Center
Fri 01:24:46 PM 53.0667 -75.0833 224° Southwest 470 541 38,000  Level Gander Center
Fri 01:25:26 PM 53.0333 -75.1500 230° Southwest 460 529 38,000  Level Montreal Center
Fri 01:26:26 PM 52.9333 -75.3167 225° Southwest 470 541 38,000  Level Montreal Center
Fri 01:27:26 PM 52.8500 -75.4833 230° Southwest 460 529 38,000  Level Montreal Center
Fri 01:28:26 PM 52.7667 -75.6333 227° Southwest 450 518 38,000  Level Montreal Center
Fri 01:29:26 PM 52.6833 -75.8000 231° Southwest 460 529 38,000  Level Montreal Center
Fri 01:30:26 PM 52.6000 -75.9667 231° Southwest 460 529 38,000  Level Montreal Center
Fri 01:31:26 PM 52.5167 -76.1000 224° Southwest 460 529 38,000  Level Montreal Center
Fri 01:32:26 PM 52.4333 -76.2667 231° Southwest 460 529 38,000  Level Montreal Center
Fri 01:33:26 PM 52.3500 -76.4333 231° Southwest 460 529 38,000  Level Montreal Center
Fri 01:34:26 PM 52.2500 -76.5667 219° Southwest 460 529 38,000  Level Montreal Center
Fri 01:35:26 PM 52.1667 -76.7333 231° Southwest 460 529 38,000  Level Montreal Center
Fri 01:36:26 PM 52.0667 -76.9000 226° Southwest 460 529 38,000  Level Montreal Center
Fri 01:37:26 PM 51.9833 -77.0333 225° Southwest 460 529 38,000  Level Montreal Center
Fri 01:38:26 PM 51.9000 -77.2000 231° Southwest 460 529 38,000  Level Montreal Center
Fri 01:39:26 PM 51.8000 -77.3333 220° Southwest 460 529 38,000  Level Montreal Center
Fri 01:40:26 PM 51.7167 -77.4667 225° Southwest 460 529 38,000  Level Montreal Center
Fri 01:41:26 PM 51.6167 -77.5833 216° Southwest 460 529 38,000  Level Montreal Center
Fri 01:42:26 PM 51.5167 -77.7500 226° Southwest 460 529 38,000  Level Montreal Center
Fri 01:43:26 PM 51.4167 -77.8833 220° Southwest 460 529 38,000  Level Montreal Center
Fri 01:44:26 PM 51.3333 -78.0333 228° Southwest 450 518 38,000  Level Montreal Center
Fri 01:45:26 PM 51.2333 -78.1667 220° Southwest 450 518 38,000  Level Montreal Center
Fri 01:46:26 PM 51.1500 -78.3000 225° Southwest 450 518 38,000  Level Montreal Center
Fri 01:47:26 PM 51.0667 -78.4333 225° Southwest 450 518 38,000  Level Montreal Center
Fri 01:48:26 PM 50.9500 -78.5500 212° Southwest 450 518 38,000  Level Montreal Center
Fri 01:49:26 PM 50.8667 -78.6833 225° Southwest 450 518 38,000  Level Montreal Center
Fri 01:50:26 PM 50.7833 -78.8167 225° Southwest 440 506 38,000  Level Montreal Center
Fri 01:51:26 PM 50.6833 -78.9667 224° Southwest 440 506 38,000  Level Montreal Center
Fri 01:52:26 PM 50.5833 -79.1000 220° Southwest 440 506 38,000  Level Montreal Center
Fri 01:53:26 PM 50.5000 -79.2167 222° Southwest 440 506 38,000  Level Montreal Center
Fri 01:54:26 PM 50.4000 -79.3500 220° Southwest 450 518 38,000  Level Montreal Center
Fri 01:55:26 PM 50.3167 -79.4667 222° Southwest 450 518 38,000  Level Montreal Center
Fri 01:56:26 PM 50.2167 -79.6167 224° Southwest 440 506 38,000  Level Montreal Center
Fri 01:57:26 PM 50.1333 -79.7500 226° Southwest 440 506 38,000  Level Montreal Center
Fri 01:58:26 PM 50.0333 -79.8667 217° Southwest 440 506 38,000  Level Montreal Center
Fri 01:59:26 PM 49.9333 -79.9833 217° Southwest 440 506 38,000  Level Montreal Center
Fri 02:00:26 PM 49.8500 -80.1167 226° Southwest 440 506 38,000  Level Montreal Center
Fri 02:01:26 PM 49.7500 -80.2333 217° Southwest 440 506 38,000  Level Montreal Center
Fri 02:02:26 PM 49.6500 -80.3500 217° Southwest 440 506 38,000  Level Montreal Center
Fri 02:03:26 PM 49.5667 -80.4833 226° Southwest 440 506 38,000  Level Montreal Center
Fri 02:04:26 PM 49.4833 -80.6000 222° Southwest 430 495 38,000  Level Montreal Center
Fri 02:05:26 PM 49.3667 -80.7167 213° Southwest 440 506 38,000  Level Montreal Center
Fri 02:06:26 PM 49.2833 -80.8333 222° Southwest 430 495 38,000  Level Montreal Center
Fri 02:07:26 PM 49.1833 -80.9833 224° Southwest 430 495 38,000  Level Montreal Center
Fri 02:08:26 PM 49.1000 -81.0833 218° Southwest 430 495 38,000  Level Montreal Center
Fri 02:09:26 PM 49.0167 -81.2000 223° Southwest 430 495 38,000  Level Montreal Center
Fri 02:10:26 PM 48.9167 -81.3167 217° Southwest 430 495 38,000  Level Montreal Center
Fri 02:11:26 PM 48.8333 -81.4333 223° Southwest 430 495 38,000  Level Montreal Center
Fri 02:12:26 PM 48.7333 -81.5500 218° Southwest 430 495 38,000  Level Montreal Center
Fri 02:13:26 PM 48.6333 -81.6667 218° Southwest 430 495 38,000  Level Montreal Center
Fri 02:14:26 PM 48.5500 -81.7833 223° Southwest 430 495 38,000  Level Montreal Center
Fri 02:15:26 PM 48.4500 -81.9000 218° Southwest 420 483 38,000  Level Montreal Center
Fri 02:16:26 PM 48.3667 -82.0167 223° Southwest 420 483 38,000  Level Montreal Center
Fri 02:17:26 PM 48.2833 -82.1333 223° Southwest 420 483 38,000  Level Montreal Center
Fri 02:18:26 PM 48.1833 -82.2500 218° Southwest 420 483 38,000  Level Montreal Center
Fri 02:19:26 PM 48.1000 -82.3333 214° Southwest 420 483 38,000  Level Montreal Center
Fri 02:20:26 PM 47.9833 -82.4167 206° Southwest 420 483 38,000  Level Montreal Center
Fri 02:21:30 PM 47.8833 -82.4833 204° Southwest 420 483 38,000  Level Toronto Center
Fri 02:22:30 PM 47.7833 -82.5833 214° Southwest 420 483 38,000  Level Toronto Center
Fri 02:23:30 PM 47.6833 -82.6833 214° Southwest 420 483 38,000  Level Toronto Center
Fri 02:24:30 PM 47.5667 -82.7667 206° Southwest 420 483 38,000  Level Toronto Center
Fri 02:25:30 PM 47.4667 -82.8667 214° Southwest 420 483 38,000  Level Toronto Center
Fri 02:26:30 PM 47.3667 -82.9500 209° Southwest 420 483 38,000  Level Toronto Center
Fri 02:27:30 PM 47.2833 -83.0167 208° Southwest 420 483 38,000  Level Toronto Center
Fri 02:28:30 PM 47.1667 -83.1167 210° Southwest 420 483 38,000  Level Toronto Center
Fri 02:29:30 PM 47.0833 -83.2000 214° Southwest 420 483 38,000  Level Toronto Center
Fri 02:30:30 PM 46.9667 -83.3000 210° Southwest 420 483 38,000  Level Toronto Center
Fri 02:31:30 PM 46.8667 -83.3833 210° Southwest 420 483 38,000  Level Toronto Center
Fri 02:32:30 PM 46.7500 -83.4833 210° Southwest 420 483 38,000  Level Toronto Center
Fri 02:33:30 PM 46.6667 -83.5500 209° Southwest 420 483 38,000  Level Toronto Center
Fri 02:34:30 PM 46.5667 -83.6333 210° Southwest 420 483 38,000  Level Toronto Center
Fri 02:35:30 PM 46.4667 -83.7167 210° Southwest 420 483 38,000  Level Toronto Center
Fri 02:41:41 PM 45.8390 -84.2510 210° Southwest 426 490 38,000  Level FlightAware ADS-B
Fri 02:42:15 PM 45.7780 -84.3000 209° Southwest 426 490 38,000  Level FlightAware ADS-B
Fri 02:43:13 PM 45.6880 -84.3730 210° Southwest 426 490 38,000  Level FlightAware ADS-B
Fri 02:43:59 PM 45.6010 -84.4430 209° Southwest 427 491 38,000  Level FlightAware ADS-B
Fri 02:45:12 PM 45.4750 -84.5450 210° Southwest 425 489 38,000  Level FlightAware ADS-B
Fri 02:45:52 PM 45.4060 -84.6000 209° Southwest 425 489 38,000  Level FlightAware ADS-B
Fri 02:46:33 PM 45.3360 -84.6560 209° Southwest 425 489 38,000  Level FlightAware ADS-B
Fri 02:47:33 PM 45.2440 -84.7250 208° Southwest 425 489 38,000  Level FlightAware ADS-B
Fri 02:48:10 PM 45.1890 -84.7670 208° Southwest 425 489 38,000  Level FlightAware ADS-B
Fri 02:48:51 PM 45.0760 -84.7690 181° South 434 499 38,000  Level FlightAware ADS-B
Fri 02:49:36 PM 44.9860 -84.7980 193° South 436 502 38,000  Level FlightAware ADS-B
Fri 02:50:19 PM 44.9040 -84.8250 193° South 436 502 38,000  Level FlightAware ADS-B
Fri 02:51:01 PM 44.8200 -84.8530 193° South 436 502 38,000  Level FlightAware ADS-B
Fri 02:51:41 PM 44.7430 -84.8780 193° South 437 503 38,000  Level FlightAware ADS-B
Fri 02:52:19 PM 44.6670 -84.9030 193° South 436 502 38,000  Level FlightAware ADS-B
Fri 02:53:04 PM 44.5780 -84.9320 193° South 435 501 38,000  Level FlightAware ADS-B
Fri 02:53:49 PM 44.4910 -84.9600 193° South 435 501 38,000  Level FlightAware ADS-B
Fri 02:54:29 PM 44.4110 -84.9860 193° South 435 501 38,000 -78 Level FlightAware ADS-B
Fri 02:55:06 PM 44.3400 -85.0090 193° South 429 494 37,900 -1,103 Descending FlightAware ADS-B
Fri 02:55:56 PM 44.2450 -85.0390 193° South 415 478 36,400 -2,044 Descending FlightAware ADS-B
Fri 02:56:37 PM 44.1700 -85.0640 193° South 398 458 34,800 -2,780 Descending FlightAware ADS-B
Fri 02:57:18 PM 44.0980 -85.0870 193° South 389 448 32,600 -2,024 Descending FlightAware ADS-B
Fri 02:58:00 PM 44.0270 -85.1100 193° South 374 430 32,000 -419 Descending FlightAware ADS-B
Fri 02:58:44 PM 43.9540 -85.1490 201° Southwest 391 450 32,000  Level FlightAware ADS-B
Fri 02:59:25 PM 43.8980 -85.2180 222° Southwest 412 474 32,000  Level FlightAware ADS-B
Fri 03:00:05 PM 43.8420 -85.2950 225° Southwest 432 497 32,000  Level FlightAware ADS-B
Fri 03:00:45 PM 43.7850 -85.3720 224° Southwest 437 503 32,000  Level FlightAware ADS-B
Fri 03:01:31 PM 43.7170 -85.4640 224° Southwest 441 507 32,000  Level FlightAware ADS-B
Fri 03:02:13 PM 43.6560 -85.5460 224° Southwest 443 510 32,000  Level FlightAware ADS-B
Fri 03:02:55 PM 43.5960 -85.6320 226° Southwest 444 511 32,000  Level FlightAware ADS-B
Fri 03:03:35 PM 43.5410 -85.7140 227° Southwest 445 512 32,000  Level FlightAware ADS-B
Fri 03:04:15 PM 43.4830 -85.7980 226° Southwest 447 514 32,000  Level FlightAware ADS-B
Fri 03:05:02 PM 43.4160 -85.8940 226° Southwest 447 514 32,000 -1,023 Level FlightAware ADS-B
Fri 03:05:43 PM 43.3590 -85.9760 226° Southwest 440 506 30,500 -2,241 Descending FlightAware ADS-B
Fri 03:06:25 PM 43.3000 -86.0600 226° Southwest 427 491 28,900 -2,386 Descending FlightAware ADS-B
Fri 03:07:06 PM 43.2450 -86.1380 226° Southwest 420 483 27,200 -2,625 Descending FlightAware ADS-B
Fri 03:07:45 PM 43.1930 -86.2120 226° Southwest 414 476 25,400 -2,385 Descending FlightAware ADS-B
Fri 03:08:24 PM 43.1430 -86.2840 226° Southwest 407 468 24,100 -1,050 Descending FlightAware ADS-B
Fri 03:09:05 PM 43.0930 -86.3550 226° Southwest 406 467 24,000 -72 Descending FlightAware ADS-B
Fri 03:09:47 PM 43.0330 -86.4390 226° Southwest 410 472 24,000  Level FlightAware ADS-B
Fri 03:10:26 PM 42.9830 -86.5100 226° Southwest 411 473 24,000  Level FlightAware ADS-B
Fri 03:11:06 PM 42.9280 -86.5870 226° Southwest 413 475 24,000  Level FlightAware ADS-B
Fri 03:11:50 PM 42.8690 -86.6690 226° Southwest 414 476 24,000 -1,023 Level FlightAware ADS-B
Fri 03:12:34 PM 42.8120 -86.7490 226° Southwest 407 468 22,500 -2,259 Descending FlightAware ADS-B
Fri 03:13:15 PM 42.7580 -86.8240 226° Southwest 403 464 20,800 -2,370 Descending FlightAware ADS-B
Fri 03:13:55 PM 42.7080 -86.8940 226° Southwest 396 456 19,300 -2,372 Descending FlightAware ADS-B
Fri 03:14:41 PM 42.6470 -86.9790 226° Southwest 392 451 17,400 -2,505 Descending FlightAware ADS-B
Fri 03:15:38 PM 42.5760 -87.0760 225° Southwest 388 447 15,000 -2,289 Descending FlightAware ADS-B
Fri 03:16:18 PM 42.5270 -87.1440 226° Southwest 376 433 13,700 -2,096 Descending FlightAware ADS-B
Fri 03:17:01 PM 42.4750 -87.2150 225° Southwest 371 427 12,100 -2,357 Descending FlightAware ADS-B
Fri 03:17:42 PM 42.4250 -87.2850 226° Southwest 369 425 10,400 -1,909 Descending FlightAware ADS-B
Fri 03:18:07 PM 42.3990 -87.3280 231° Southwest 362 417 10,000 -421 Descending FlightAware ADS-B
Fri 03:18:39 PM 42.3770 -87.3940 246° West 348 400 10,000  Level FlightAware ADS-B
Fri 03:18:51 PM 42.3700 -87.4180 248° West 346 398 10,000  Level FlightAware ADS-B
Fri 03:19:19 PM 42.3550 -87.4760 251° West 347 399 10,000  Level FlightAware ADS-B
Fri 03:19:48 PM 42.3370 -87.5280 245° Southwest 348 400 10,000  Level FlightAware ADS-B
Fri 03:20:16 PM 42.3040 -87.5730 225° Southwest 347 399 10,000  Level FlightAware ADS-B
Fri 03:20:32 PM 42.2830 -87.5960 219° Southwest 347 399 10,000  Level FlightAware ADS-B
Fri 03:21:00 PM 42.2470 -87.6330 217° Southwest 349 402 10,000  Level FlightAware ADS-B
Fri 03:21:22 PM 42.2200 -87.6600 217° Southwest 338 389 10,000  Level FlightAware ADS-B
Fri 03:21:54 PM 42.1810 -87.7000 217° Southwest 303 349 10,000  Level FlightAware ADS-B
Fri 03:22:10 PM 42.1640 -87.7170 217° Southwest 290 334 10,000 -818 Level FlightAware ADS-B
Fri 03:22:38 PM 42.1350 -87.7480 218° Southwest 286 329 9,400 -1,500 Descending FlightAware ADS-B
Fri 03:22:50 PM 42.1230 -87.7610 219° Southwest 287 330 9,000 -1,579 Descending FlightAware ADS-B
Fri 03:23:16 PM 42.0950 -87.7910 218° Southwest 287 330 8,400 -1,418 Descending FlightAware ADS-B
Fri 03:23:45 PM 42.0660 -87.8210 218° Southwest 286 329 7,700 -1,345 Descending FlightAware ADS-B
Fri 03:24:14 PM 42.0350 -87.8540 218° Southwest 284 327 7,100 -933 Descending FlightAware ADS-B
Fri 03:24:30 PM 42.0190 -87.8710 218° Southwest 285 328 7,000 -136 Descending FlightAware ADS-B
Fri 03:24:58 PM 41.9910 -87.9070 224° Southwest 285 328 7,000  Level FlightAware ADS-B
Fri 03:25:27 PM 41.9700 -87.9470 235° Southwest 282 325 7,000  Level FlightAware ADS-B
Fri 03:25:51 PM 41.9520 -87.9820 235° Southwest 281 323 7,000  Level FlightAware ADS-B
Fri 03:26:19 PM 41.9320 -88.0220 236° Southwest 281 323 7,000  Level FlightAware ADS-B
Fri 03:26:48 PM 41.9100 -88.0650 236° Southwest 280 322 7,000  Level FlightAware ADS-B
Fri 03:27:04 PM 41.9040 -88.0900 252° West 257 296 7,000  Level FlightAware ADS-B
Fri 03:27:15 PM 41.9030 -88.1050 265° West 248 285 7,000  Level FlightAware ADS-B
Fri 03:27:45 PM 41.9010 -88.1490 267° West 218 251 7,000  Level FlightAware ADS-B
Fri 03:28:13 PM 41.8980 -88.1850 264° West 197 227 7,000  Level FlightAware ADS-B
Fri 03:28:42 PM 41.8960 -88.2210 266° West 198 228 7,000  Level FlightAware ADS-B
Fri 03:29:08 PM 41.8940 -88.2530 265° West 198 228 7,000 -293 Level FlightAware ADS-B
Fri 03:29:23 PM 41.8930 -88.2710 266° West 195 224 6,800 -1,167 Descending FlightAware ADS-B
Fri 03:29:44 PM 41.8910 -88.2950 264° West 197 227 6,300 -1,317 Descending FlightAware ADS-B
Fri 03:30:04 PM 41.8980 -88.3180 292° West 189 217 5,900 -1,235 Descending FlightAware ADS-B
Fri 03:30:18 PM 41.9090 -88.3240 338° Northwest 186 214 5,600 -1,167 Descending FlightAware ADS-B
Fri 03:30:40 PM 41.9280 -88.3260 356° North 186 214 5,200 -857 Descending FlightAware ADS-B
Fri 03:31:00 PM 41.9440 -88.3180 20° North 187 215 5,000 -353 Descending FlightAware ADS-B
Fri 03:31:14 PM 41.9510 -88.3040 56° Northeast 186 214 5,000  Level FlightAware ADS-B
Fri 03:31:43 PM 41.9630 -88.2760 60° Northeast 186 214 5,000  Level FlightAware ADS-B
Fri 03:31:58 PM 41.9670 -88.2580 73° East 189 217 5,000  Level FlightAware ADS-B
Fri 03:32:10 PM 41.9680 -88.2440 85° East 190 219 5,000 -300 Level FlightAware ADS-B
Fri 03:32:38 PM 41.9680 -88.2110 90° East 192 221 4,800 -682 Descending FlightAware ADS-B
Fri 03:32:54 PM 41.9680 -88.1920 90° East 191 220 4,500 -1,067 Descending FlightAware ADS-B
Fri 03:33:23 PM 41.9680 -88.1590 90° East 183 211 4,000 -1,080 Descending FlightAware ADS-B
Fri 03:33:44 PM 41.9680 -88.1350 90° East 183 211 3,600 -957 Descending FlightAware ADS-B
Fri 03:34:32 PM 41.9690 -88.0820 89° East 180 207 2,900 -907 Descending FlightAware ADS-B
Fri 03:35:10 PM 41.9690 -88.0390 90° East 174 200 2,300 -900 Descending FlightAware ADS-B
Fri 03:35:52 PM 41.9690 -88.0010 90° East 148 170 1,700 -800 Descending FlightAware ADS-B
Fri 03:36:25 PM 41.9690 -87.9680 90° East 143 165 1,300 -792 Descending FlightAware ADS-B
Fri 03:36:45 PM 41.9690 -87.9500 90° East 141 162 1,000 -875 Descending FlightAware ADS-B
Fri 03:37:13 PM 41.9690 -87.9250 90° East 141 162 600 -857 Descending FlightAware ADS-B
Fri 03:39:20 PM 41.9700 -87.8980 87° East 17 20 -283 Descending FlightAware ADS-B

Login

Don't have an account? Register now (free) for customized features, flight alerts, and more!